Time;durP1;ratioP1;P1;durP2;ratioP2;P2;SDS_P1;SDS_P2;PMS_P1;PMS_P2;Temp;Humidity;BMP_temperature;BMP_pressure;BME280_temperature;BME280_humidity;BME280_pressure;Samples;Min_cycle;Max_cycle;Signal;HPM_P1;HPM_P2
2023/05/26 00:00:28;;;;;;;10.50;4.05;;;16.40;49.80;;;;;;5030394;28;20425;-56
2023/05/26 00:02:57;;;;;;;13.68;4.82;;;16.30;50.00;;;;;;5028655;28;20045;-56
2023/05/26 00:05:25;;;;;;;12.32;3.70;;;16.20;49.90;;;;;;5030099;28;20055;-53
2023/05/26 00:07:53;;;;;;;13.40;3.53;;;16.20;50.10;;;;;;5031570;28;20049;-56
2023/05/26 00:10:20;;;;;;;8.90;4.07;;;16.20;50.30;;;;;;5030626;28;20506;-56
2023/05/26 00:12:49;;;;;;;10.32;4.15;;;16.10;50.40;;;;;;5025653;28;20574;-56
2023/05/26 00:15:19;;;;;;;13.05;4.90;;;16.10;50.40;;;;;;5030317;28;20045;-55
2023/05/26 00:17:50;;;;;;;16.50;4.60;;;16.00;50.40;;;;;;5031963;28;20119;-56
2023/05/26 00:20:18;;;;;;;18.83;5.13;;;16.00;50.60;;;;;;5006467;28;20142;-55
2023/05/26 00:22:47;;;;;;;11.27;4.03;;;16.00;50.70;;;;;;5031285;28;20087;-55
2023/05/26 00:25:22;;;;;;;18.48;5.03;;;15.90;50.70;;;;;;5025540;28;20117;-57
2023/05/26 00:27:49;;;;;;;10.80;4.07;;;15.90;50.80;;;;;;5031288;28;20037;-56
2023/05/26 00:30:18;;;;;;;12.20;4.18;;;15.80;50.90;;;;;;5022336;28;20045;-55
2023/05/26 00:32:50;;;;;;;14.82;3.97;;;15.80;51.00;;;;;;5030487;28;20041;-56
2023/05/26 00:35:17;;;;;;;11.82;4.72;;;15.70;51.20;;;;;;5025806;28;20043;-56
2023/05/26 00:37:47;;;;;;;13.43;4.25;;;15.70;51.20;;;;;;5036665;28;20374;-56
2023/05/26 00:40:16;;;;;;;16.95;3.90;;;15.70;51.20;;;;;;5012405;28;20046;-55
2023/05/26 00:42:44;;;;;;;12.48;4.82;;;15.70;51.30;;;;;;5009930;28;20520;-56
2023/05/26 00:45:13;;;;;;;10.90;4.43;;;15.70;51.40;;;;;;5041714;28;20045;-55
2023/05/26 00:47:40;;;;;;;16.92;4.40;;;15.60;51.40;;;;;;5029796;28;20052;-56
2023/05/26 00:50:08;;;;;;;18.17;5.00;;;15.60;51.50;;;;;;5029347;28;20600;-55
2023/05/26 00:52:37;;;;;;;12.00;5.43;;;15.60;51.70;;;;;;5031120;28;20080;-55
2023/05/26 00:55:06;;;;;;;12.38;5.18;;;15.60;51.70;;;;;;5025208;28;20100;-56
2023/05/26 00:57:36;;;;;;;17.88;4.63;;;15.60;51.90;;;;;;5029469;28;20099;-53
2023/05/26 01:00:09;;;;;;;12.50;4.28;;;15.50;51.80;;;;;;5029854;28;20046;-56
2023/05/26 01:02:39;;;;;;;11.95;3.55;;;15.50;51.80;;;;;;5029255;28;20041;-55
2023/05/26 01:05:06;;;;;;;12.70;4.70;;;15.40;51.80;;;;;;5024841;28;20056;-55
2023/05/26 01:07:33;;;;;;;15.75;4.72;;;15.40;51.80;;;;;;5030612;28;20497;-55
2023/05/26 01:10:00;;;;;;;13.85;5.15;;;15.40;52.00;;;;;;5011691;28;20082;-57
2023/05/26 01:12:34;;;;;;;12.65;4.55;;;15.40;52.10;;;;;;5020170;28;20647;-56
2023/05/26 01:15:10;;;;;;;11.82;3.95;;;15.30;52.40;;;;;;5034529;28;20095;-55
2023/05/26 01:17:59;;;;;;;11.13;4.07;;;15.30;52.70;;;;;;5023454;28;20042;-56
2023/05/26 01:20:46;;;;;;;13.10;4.72;;;15.30;52.70;;;;;;5026224;28;20049;-56
2023/05/26 01:23:46;;;;;;;9.85;3.35;;;15.20;52.70;;;;;;5039179;28;20052;-56
2023/05/26 01:26:28;;;;;;;;;;;15.20;52.80;;;;;;5008112;28;20456;-56
2023/05/26 01:29:09;;;;;;;16.20;4.05;;;15.20;51.50;;;;;;5028799;28;19928;-56
2023/05/26 01:31:38;;;;;;;11.25;4.00;;;15.20;51.90;;;;;;5029402;28;20049;-56
2023/05/26 01:34:21;;;;;;;11.48;4.00;;;15.10;52.10;;;;;;5021033;28;20578;-56
2023/05/26 01:36:51;;;;;;;18.80;4.85;;;15.10;52.30;;;;;;5010967;28;20073;-56
2023/05/26 01:39:21;;;;;;;16.00;4.60;;;15.00;52.50;;;;;;5028794;28;20136;-55
2023/05/26 01:42:00;;;;;;;15.65;4.18;;;15.00;52.90;;;;;;5025227;28;20569;-56
2023/05/26 01:44:35;;;;;;;13.82;5.15;;;15.00;53.00;;;;;;5029381;28;20120;-56
2023/05/26 01:47:05;;;;;;;16.40;5.10;;;14.90;53.00;;;;;;5011062;28;20498;-56
2023/05/26 01:49:36;;;;;;;12.07;3.88;;;14.90;52.90;;;;;;5009123;28;20041;-56
2023/05/26 01:52:12;;;;;;;11.98;4.03;;;14.90;53.00;;;;;;5009848;28;20049;-56
2023/05/26 01:54:49;;;;;;;14.52;4.65;;;14.80;53.30;;;;;;5002216;28;20107;-56
2023/05/26 01:57:18;;;;;;;11.00;4.47;;;14.90;53.50;;;;;;5008961;28;20453;-56
2023/05/26 01:59:52;;;;;;;16.88;4.50;;;14.80;53.10;;;;;;5011651;28;20739;-56
2023/05/26 02:02:21;;;;;;;14.40;4.15;;;14.80;53.80;;;;;;5029556;28;20580;-55
2023/05/26 02:04:50;;;;;;;13.75;4.38;;;14.80;53.30;;;;;;5019836;28;20657;-56
2023/05/26 02:07:19;;;;;;;15.23;4.55;;;14.70;53.30;;;;;;5033778;28;20080;-55
2023/05/26 02:09:48;;;;;;;11.82;3.95;;;14.70;53.50;;;;;;5018154;28;20041;-56
2023/05/26 02:12:15;;;;;;;13.63;4.40;;;14.70;53.80;;;;;;5029622;28;20050;-55
2023/05/26 02:14:43;;;;;;;15.65;4.47;;;14.60;53.70;;;;;;5034381;28;20049;-54
2023/05/26 02:17:13;;;;;;;13.88;4.18;;;14.60;53.70;;;;;;5033471;28;20120;-56
2023/05/26 02:19:48;;;;;;;10.00;4.18;;;14.60;53.80;;;;;;5017827;28;20037;-55
2023/05/26 02:22:20;;;;;;;16.30;5.13;;;14.50;53.80;;;;;;5028858;28;20053;-56
2023/05/26 02:24:51;;;;;;;10.73;3.97;;;14.60;53.90;;;;;;5009385;28;20103;-53
2023/05/26 02:27:21;;;;;;;19.38;6.07;;;14.50;54.20;;;;;;5035358;28;20471;-56
2023/05/26 02:29:48;;;;;;;13.57;4.97;;;14.50;54.00;;;;;;5018148;28;20065;-55
2023/05/26 02:32:17;;;;;;;11.73;4.28;;;14.50;54.10;;;;;;5030316;28;20041;-57
2023/05/26 02:34:44;;;;;;;13.98;5.90;;;14.50;54.20;;;;;;5035131;28;20049;-55
2023/05/26 02:37:13;;;;;;;14.60;4.65;;;14.40;54.20;;;;;;5033966;28;20053;-56
2023/05/26 02:39:41;;;;;;;13.32;5.03;;;14.40;54.30;;;;;;5034482;28;20446;-56
2023/05/26 02:42:13;;;;;;;10.45;4.15;;;14.40;54.40;;;;;;5032611;28;20517;-56
2023/05/26 02:44:40;;;;;;;12.25;4.10;;;14.50;54.60;;;;;;5017873;28;20160;-56
2023/05/26 02:47:08;;;;;;;14.80;4.25;;;14.20;54.20;;;;;;5035716;28;20087;-56
2023/05/26 02:49:37;;;;;;;12.25;4.10;;;14.20;54.40;;;;;;5028458;28;20706;-56
2023/05/26 02:52:04;;;;;;;14.05;6.40;;;14.20;54.60;;;;;;5011698;28;20132;-53
2023/05/26 02:54:35;;;;;;;15.88;5.32;;;14.10;54.70;;;;;;5017842;28;20497;-56
2023/05/26 02:57:05;;;;;;;12.75;5.18;;;14.10;55.00;;;;;;5036191;28;20045;-56
2023/05/26 02:59:34;;;;;;;14.02;4.70;;;14.10;55.10;;;;;;5035557;28;20037;-56
2023/05/26 03:02:05;;;;;;;13.00;6.28;;;14.00;54.80;;;;;;5031459;28;20048;-55
2023/05/26 03:04:32;;;;;;;19.77;5.07;;;14.00;54.90;;;;;;5034226;28;20049;-56
2023/05/26 03:07:03;;;;;;;14.60;4.40;;;13.90;55.00;;;;;;5034970;28;20057;-55
2023/05/26 03:09:35;;;;;;;15.35;4.80;;;13.90;55.10;;;;;;5054950;22;20045;-47
2023/05/26 03:12:07;;;;;;;10.45;4.43;;;13.90;55.50;;;;;;5041694;28;20053;-51
2023/05/26 03:14:34;;;;;;;16.00;5.13;;;13.80;55.60;;;;;;5024670;28;20037;-53
2023/05/26 03:17:11;;;;;;;18.48;5.03;;;13.80;55.40;;;;;;5041870;28;20033;-50
2023/05/26 03:19:43;;;;;;;16.90;5.10;;;13.80;55.50;;;;;;5021452;28;20049;-48
2023/05/26 03:22:10;;;;;;;15.25;5.55;;;13.70;55.70;;;;;;5027678;28;20095;-53
2023/05/26 03:24:59;;;;;;;13.70;5.90;;;13.70;55.50;;;;;;5029851;28;20044;-47
2023/05/26 03:27:40;;;;;;;16.80;4.72;;;13.70;55.60;;;;;;5050520;28;20386;-52
2023/05/26 03:30:09;;;;;;;17.13;4.72;;;13.60;55.90;;;;;;5050894;28;20041;-48
2023/05/26 03:32:41;;;;;;;12.70;5.28;;;13.60;55.80;;;;;;5033708;28;20033;-50
2023/05/26 03:35:08;;;;;;;12.57;5.03;;;13.50;56.00;;;;;;5047178;28;20033;-47
2023/05/26 03:37:40;;;;;;;14.80;5.22;;;13.50;56.00;;;;;;5033631;28;20127;-47
2023/05/26 03:40:08;;;;;;;15.40;4.90;;;13.40;56.10;;;;;;5033824;28;20048;-48
2023/05/26 03:42:36;;;;;;;15.70;4.68;;;13.40;56.20;;;;;;5029575;28;20037;-47
2023/05/26 03:45:10;;;;;;;15.10;4.88;;;13.40;56.40;;;;;;5033731;28;20045;-52
2023/05/26 03:47:40;;;;;;;14.90;5.20;;;13.40;56.50;;;;;;5030012;28;20050;-47
2023/05/26 03:50:10;;;;;;;14.98;5.10;;;13.40;56.60;;;;;;5031221;28;20414;-52
2023/05/26 03:52:40;;;;;;;15.38;4.55;;;13.30;56.50;;;;;;5028572;28;20045;-50
2023/05/26 03:55:09;;;;;;;14.52;5.30;;;13.30;56.50;;;;;;5047623;28;20041;-49
2023/05/26 03:57:50;;;;;;;13.57;4.88;;;13.30;56.70;;;;;;5049375;28;20039;-49
2023/05/26 04:00:22;;;;;;;12.10;4.88;;;13.20;56.70;;;;;;5052374;28;20095;-47
2023/05/26 04:02:49;;;;;;;12.48;4.90;;;13.20;56.70;;;;;;5033341;28;20045;-48
2023/05/26 04:05:16;;;;;;;15.38;4.65;;;13.20;56.90;;;;;;5044311;28;20119;-50
2023/05/26 04:07:44;;;;;;;12.23;3.92;;;13.20;57.00;;;;;;5033616;28;20040;-51
2023/05/26 04:10:15;;;;;;;16.35;4.85;;;13.20;57.10;;;;;;5050906;28;20045;-52
2023/05/26 04:12:42;;;;;;;14.65;5.15;;;13.20;57.30;;;;;;5048565;28;20120;-51
2023/05/26 04:15:17;;;;;;;23.00;5.57;;;13.10;57.20;;;;;;5051149;28;20121;-52
2023/05/26 04:17:55;;;;;;;15.15;4.47;;;13.10;57.30;;;;;;5043983;28;20036;-50
2023/05/26 04:20:22;;;;;;;18.60;5.50;;;13.10;57.40;;;;;;5050926;28;20092;-52
2023/05/26 04:22:49;;;;;;;15.80;5.07;;;13.10;57.30;;;;;;5028676;28;20452;-53
2023/05/26 04:25:17;;;;;;;26.15;6.53;;;13.10;57.40;;;;;;5039005;28;20163;-53
2023/05/26 04:28:07;;;;;;;20.00;5.47;;;13.10;57.50;;;;;;5047550;28;20057;-50
2023/05/26 04:30:52;;;;;;;23.75;6.68;;;13.10;57.50;;;;;;5051719;28;20099;-52
2023/05/26 04:33:22;;;;;;;15.60;7.07;;;13.10;57.50;;;;;;5049821;28;20060;-53
2023/05/26 04:35:54;;;;;;;;;;;13.10;57.70;;;;;;5031527;28;20073;-51
2023/05/26 04:38:21;;;;;;;21.38;7.50;;;13.10;57.30;;;;;;5046604;28;19956;-51
2023/05/26 04:40:48;;;;;;;17.77;6.90;;;13.10;57.30;;;;;;5033351;28;20040;-50
2023/05/26 04:43:15;;;;;;;15.32;6.68;;;13.00;57.60;;;;;;5046437;28;20132;-49
2023/05/26 04:45:43;;;;;;;19.00;6.82;;;13.10;57.80;;;;;;5047000;28;20132;-50
2023/05/26 04:48:10;;;;;;;22.77;6.80;;;13.10;58.00;;;;;;5027820;28;20037;-52
2023/05/26 04:50:39;;;;;;;24.13;9.13;;;13.10;58.10;;;;;;5031729;28;20687;-52
2023/05/26 04:53:08;;;;;;;21.77;7.60;;;13.10;58.30;;;;;;5046054;28;20037;-48
2023/05/26 04:55:35;;;;;;;21.38;7.45;;;13.10;58.20;;;;;;5028944;28;20047;-53
2023/05/26 04:58:06;;;;;;;22.45;8.85;;;13.10;58.20;;;;;;5029897;28;20489;-49
2023/05/26 05:00:34;;;;;;;21.20;9.02;;;13.10;58.30;;;;;;5030673;28;20049;-48
2023/05/26 05:03:21;;;;;;;17.15;8.30;;;13.20;58.30;;;;;;5047572;28;20444;-49
2023/05/26 05:05:57;;;;;;;17.40;7.97;;;13.20;58.30;;;;;;5035713;28;20103;-52
2023/05/26 05:08:24;;;;;;;23.77;9.27;;;13.20;58.30;;;;;;5034446;28;20069;-51
2023/05/26 05:10:51;;;;;;;19.80;9.25;;;13.20;58.50;;;;;;5037041;28;20128;-52
2023/05/26 05:13:18;;;;;;;21.55;9.90;;;13.20;58.50;;;;;;5022246;28;20041;-49
2023/05/26 05:15:45;;;;;;;21.08;8.30;;;13.20;58.60;;;;;;5046031;28;20091;-49
2023/05/26 05:18:12;;;;;;;22.60;9.25;;;13.20;58.60;;;;;;5031000;28;20459;-50
2023/05/26 05:20:41;;;;;;;18.92;9.38;;;13.30;58.60;;;;;;5018925;28;20056;-50
2023/05/26 05:23:07;;;;;;;26.45;9.55;;;13.30;58.70;;;;;;5043658;28;20045;-49
2023/05/26 05:25:34;;;;;;;19.42;9.25;;;13.40;58.80;;;;;;5045525;28;20052;-53
2023/05/26 05:28:02;;;;;;;23.67;9.45;;;13.40;58.90;;;;;;5040877;28;20087;-51
2023/05/26 05:30:31;;;;;;;18.75;9.15;;;13.50;59.00;;;;;;5028757;28;20075;-49
2023/05/26 05:32:58;;;;;;;26.95;10.43;;;13.60;58.80;;;;;;5035514;28;20128;-51
2023/05/26 05:35:24;;;;;;;26.55;10.55;;;13.70;58.80;;;;;;5018881;28;20046;-52
2023/05/26 05:37:56;;;;;;;25.60;10.45;;;13.80;58.70;;;;;;5029909;28;20045;-51
2023/05/26 05:40:23;;;;;;;28.97;10.30;;;13.90;58.70;;;;;;5026590;28;20164;-53
2023/05/26 05:42:52;;;;;;;28.77;10.73;;;14.00;58.30;;;;;;5029877;28;20071;-51
2023/05/26 05:45:19;;;;;;;22.88;11.23;;;14.10;58.00;;;;;;5045622;28;20037;-51
2023/05/26 05:48:16;;;;;;;27.88;11.43;;;14.10;57.70;;;;;;5043037;28;20048;-51
2023/05/26 05:50:50;;;;;;;22.13;10.60;;;14.20;57.50;;;;;;5046611;28;20128;-52
2023/05/26 05:53:16;;;;;;;21.02;8.63;;;14.30;57.50;;;;;;5035309;28;20077;-53
2023/05/26 05:55:46;;;;;;;23.42;9.75;;;14.30;57.50;;;;;;5044165;28;20041;-53
2023/05/26 05:58:16;;;;;;;25.45;11.02;;;14.30;57.40;;;;;;5025730;28;20111;-52
2023/05/26 06:00:43;;;;;;;20.10;10.52;;;14.40;57.10;;;;;;5030691;28;20072;-53
2023/05/26 06:03:10;;;;;;;21.73;9.82;;;14.50;57.20;;;;;;5030546;28;20140;-49
2023/05/26 06:05:37;;;;;;;27.70;10.82;;;14.50;57.00;;;;;;5047948;28;20049;-51
2023/05/26 06:08:04;;;;;;;20.58;10.82;;;14.50;56.70;;;;;;5030411;28;20048;-52
2023/05/26 06:10:30;;;;;;;25.70;11.68;;;14.60;56.80;;;;;;5027512;28;20095;-49
2023/05/26 06:12:57;;;;;;;19.30;10.13;;;14.60;56.90;;;;;;5026876;28;20580;-53
2023/05/26 06:15:24;;;;;;;19.85;9.85;;;14.70;56.90;;;;;;5029611;28;20053;-51
2023/05/26 06:17:52;;;;;;;22.75;10.23;;;14.80;56.80;;;;;;5046248;28;20095;-51
2023/05/26 06:20:19;;;;;;;19.98;10.63;;;14.80;56.60;;;;;;5033793;28;20141;-52
2023/05/26 06:22:46;;;;;;;23.88;11.50;;;14.90;56.40;;;;;;5024523;28;20084;-53
2023/05/26 06:25:12;;;;;;;17.17;11.23;;;15.00;56.50;;;;;;5044707;28;20516;-52
2023/05/26 06:27:39;;;;;;;24.92;12.05;;;15.00;56.40;;;;;;5055772;28;20037;-51
2023/05/26 06:30:09;;;;;;;23.13;12.85;;;15.20;56.60;;;;;;5047826;28;20033;-52
2023/05/26 06:32:37;;;;;;;26.17;12.50;;;15.20;56.10;;;;;;5045641;28;20033;-49
2023/05/26 06:35:07;;;;;;;27.27;12.57;;;15.30;56.00;;;;;;5023557;28;20103;-52
2023/05/26 06:37:34;;;;;;;17.60;11.57;;;15.40;55.90;;;;;;5029436;28;20057;-52
2023/05/26 06:40:01;;;;;;;21.85;11.15;;;15.40;55.60;;;;;;5048513;28;20045;-52
2023/05/26 06:42:34;;;;;;;21.73;11.30;;;15.50;55.50;;;;;;5045803;28;20654;-51
2023/05/26 06:45:01;;;;;;;22.92;11.38;;;15.50;55.10;;;;;;5027794;28;20055;-53
2023/05/26 06:47:29;;;;;;;21.13;11.18;;;15.60;55.10;;;;;;5023322;28;20048;-51
2023/05/26 06:50:09;;;;;;;24.95;10.98;;;15.70;55.00;;;;;;5034724;28;20036;-52
2023/05/26 06:52:37;;;;;;;21.55;11.68;;;15.70;55.00;;;;;;5033383;28;20061;-52
2023/05/26 06:55:04;;;;;;;16.60;11.23;;;15.80;55.00;;;;;;5030240;28;20468;-51
2023/05/26 06:57:31;;;;;;;20.45;10.75;;;15.80;54.80;;;;;;5034617;28;20037;-49
2023/05/26 07:00:02;;;;;;;21.52;10.90;;;15.90;54.60;;;;;;5052105;28;20037;-52
2023/05/26 07:02:29;;;;;;;19.80;10.15;;;15.90;54.60;;;;;;5040798;28;20540;-52
2023/05/26 07:05:14;;;;;;;18.48;10.27;;;15.90;54.60;;;;;;5031675;28;20465;-52
2023/05/26 07:07:42;;;;;;;21.42;10.10;;;16.00;54.50;;;;;;5044409;28;20436;-51
2023/05/26 07:10:09;;;;;;;20.65;10.80;;;16.00;54.20;;;;;;5050406;28;20045;-48
2023/05/26 07:12:36;;;;;;;23.45;10.07;;;16.10;54.50;;;;;;5026822;28;20416;-50
2023/05/26 07:15:13;;;;;;;18.60;11.23;;;16.10;54.40;;;;;;5033331;28;20585;-48
2023/05/26 07:17:40;;;;;;;29.88;10.93;;;16.20;54.30;;;;;;5033734;28;20044;-51
2023/05/26 07:20:08;;;;;;;22.80;10.63;;;16.20;54.50;;;;;;5031501;28;20045;-53
2023/05/26 07:22:35;;;;;;;20.05;9.98;;;16.30;54.20;;;;;;5048165;28;20051;-52
2023/05/26 07:25:11;;;;;;;20.38;11.20;;;16.30;54.00;;;;;;5029178;28;20037;-50
2023/05/26 07:27:43;;;;;;;20.38;12.75;;;16.40;53.90;;;;;;5053043;28;20505;-50
2023/05/26 07:30:11;;;;;;;21.65;10.90;;;16.30;53.70;;;;;;5032638;28;20041;-50
2023/05/26 07:32:54;;;;;;;17.83;9.70;;;16.30;53.80;;;;;;5044035;28;20414;-53
2023/05/26 07:35:22;;;;;;;20.88;9.82;;;16.30;53.70;;;;;;5042121;28;20757;-54
2023/05/26 07:37:49;;;;;;;19.25;10.02;;;16.20;53.60;;;;;;5049378;28;20033;-53
2023/05/26 07:40:15;;;;;;;16.15;8.38;;;16.20;53.60;;;;;;5051529;28;20057;-53
2023/05/26 07:42:42;;;;;;;21.95;7.78;;;16.10;53.40;;;;;;5041397;28;20072;-53
2023/05/26 07:45:10;;;;;;;16.05;7.40;;;16.10;53.60;;;;;;5044675;28;20122;-52
2023/05/26 07:47:36;;;;;;;14.52;7.85;;;16.10;53.70;;;;;;5050398;28;20079;-53
2023/05/26 07:50:09;;;;;;;23.30;9.75;;;16.00;53.90;;;;;;5050401;28;20048;-51
2023/05/26 07:52:36;;;;;;;23.80;8.45;;;16.00;54.30;;;;;;5050693;28;20041;-49
2023/05/26 07:55:02;;;;;;;17.98;7.38;;;16.00;54.20;;;;;;5041818;28;20040;-50
2023/05/26 07:57:29;;;;;;;15.18;6.60;;;16.00;54.20;;;;;;5042076;28;20037;-54
2023/05/26 07:59:56;;;;;;;18.30;7.38;;;16.00;54.40;;;;;;5050467;28;20374;-52
2023/05/26 08:02:23;;;;;;;17.85;7.53;;;16.00;54.30;;;;;;5046972;28;20040;-51
2023/05/26 08:04:50;;;;;;;16.05;7.43;;;16.00;54.30;;;;;;5048007;28;20507;-51
2023/05/26 08:07:17;;;;;;;15.88;6.28;;;16.00;54.50;;;;;;5051480;28;20094;-52
2023/05/26 08:09:45;;;;;;;13.10;6.20;;;16.10;54.60;;;;;;5050837;28;20132;-52
2023/05/26 08:12:14;;;;;;;18.33;6.25;;;16.10;54.40;;;;;;5051089;28;20405;-52
2023/05/26 08:14:41;;;;;;;12.85;5.32;;;16.10;54.20;;;;;;5046169;28;20041;-52
2023/05/26 08:17:07;;;;;;;17.20;7.03;;;16.10;54.20;;;;;;5051257;28;20517;-47
2023/05/26 08:19:35;;;;;;;15.50;6.55;;;16.20;54.10;;;;;;5050830;28;20120;-52
2023/05/26 08:22:01;;;;;;;14.20;5.88;;;16.20;54.40;;;;;;5050723;28;20103;-50
2023/05/26 08:24:28;;;;;;;13.45;5.32;;;16.20;54.40;;;;;;5042003;28;20099;-48
2023/05/26 08:26:55;;;;;;;17.75;6.60;;;16.30;54.50;;;;;;5050363;28;20041;-49
2023/05/26 08:29:22;;;;;;;20.52;6.78;;;16.30;54.30;;;;;;5050934;28;20048;-49
2023/05/26 08:31:49;;;;;;;18.30;4.85;;;16.40;54.30;;;;;;5049885;28;20042;-49
2023/05/26 08:34:17;;;;;;;17.85;5.80;;;16.40;54.00;;;;;;5048852;28;20043;-50
2023/05/26 08:36:43;;;;;;;18.60;5.60;;;16.40;53.90;;;;;;5050114;28;20572;-49
2023/05/26 08:39:10;;;;;;;22.38;6.85;;;16.50;54.30;;;;;;5050901;28;20405;-50
2023/05/26 08:42:01;;;;;;;13.02;5.90;;;16.50;54.30;;;;;;5044959;28;20087;-49
2023/05/26 08:44:29;;;;;;;18.17;5.38;;;16.60;54.60;;;;;;5046166;28;20049;-49
2023/05/26 08:46:58;;;;;;;19.17;4.88;;;16.60;53.70;;;;;;5049815;28;20072;-50
2023/05/26 08:49:27;;;;;;;18.45;5.50;;;16.60;53.90;;;;;;5045329;28;20045;-49
2023/05/26 08:52:06;;;;;;;16.38;5.38;;;16.60;54.20;;;;;;5048864;28;20128;-49
2023/05/26 08:54:33;;;;;;;16.40;5.10;;;16.70;54.20;;;;;;5044433;28;20036;-49
2023/05/26 08:57:02;;;;;;;14.55;4.57;;;16.80;54.20;;;;;;5048351;28;20041;-48
2023/05/26 08:59:32;;;;;;;17.50;5.32;;;16.80;54.20;;;;;;5049739;28;20124;-51
2023/05/26 09:02:00;;;;;;;18.58;5.65;;;16.80;53.50;;;;;;5047601;28;20072;-50
2023/05/26 09:04:30;;;;;;;21.65;5.13;;;16.90;53.30;;;;;;5046797;28;20433;-49
2023/05/26 09:06:57;;;;;;;13.70;4.38;;;16.90;53.30;;;;;;5049660;28;20099;-49
2023/05/26 09:09:45;;;;;;;11.30;4.65;;;17.00;53.10;;;;;;5049327;28;20049;-50
2023/05/26 09:12:12;;;;;;;16.45;4.43;;;17.00;53.10;;;;;;5043702;28;20045;-49
2023/05/26 09:14:40;;;;;;;18.63;4.78;;;17.00;53.00;;;;;;5048575;28;20497;-49
2023/05/26 09:17:11;;;;;;;11.52;4.30;;;17.00;53.00;;;;;;5050025;28;20041;-49
2023/05/26 09:19:41;;;;;;;12.85;4.55;;;17.10;53.30;;;;;;5049546;28;20098;-51
2023/05/26 09:22:09;;;;;;;13.48;5.93;;;17.10;53.20;;;;;;5046874;28;20052;-52
2023/05/26 09:24:47;;;;;;;14.68;4.80;;;17.20;53.00;;;;;;5054783;22;20057;-48
2023/05/26 09:27:19;;;;;;;13.30;4.53;;;17.20;53.00;;;;;;5022074;28;20045;-49
2023/05/26 09:29:54;;;;;;;13.52;4.43;;;17.30;52.90;;;;;;5029851;28;20029;-47
2023/05/26 09:32:25;;;;;;;12.70;4.20;;;17.40;52.80;;;;;;5020432;28;20045;-48
2023/05/26 09:34:54;;;;;;;12.80;4.23;;;17.40;52.30;;;;;;5021077;28;20409;-46
2023/05/26 09:37:34;;;;;;;14.07;4.95;;;17.50;52.60;;;;;;5030196;28;20648;-48
2023/05/26 09:40:13;;;;;;;14.00;4.50;;;17.50;52.70;;;;;;5017454;28;20042;-48
2023/05/26 09:42:47;;;;;;;10.75;5.03;;;17.60;52.30;;;;;;5017833;28;20121;-47
2023/05/26 09:45:15;;;;;;;13.18;4.22;;;17.60;52.30;;;;;;5022594;28;20498;-46
2023/05/26 09:47:42;;;;;;;10.98;3.90;;;17.60;52.50;;;;;;5029411;28;20049;-47
2023/05/26 09:50:09;;;;;;;13.30;4.45;;;17.60;52.50;;;;;;5020824;28;20570;-46
2023/05/26 09:52:40;;;;;;;14.30;4.10;;;17.60;52.70;;;;;;5028573;28;20120;-49
2023/05/26 09:55:07;;;;;;;19.02;6.63;;;17.70;52.40;;;;;;5028762;28;20136;-45
2023/05/26 09:57:37;;;;;;;19.58;5.80;;;17.80;52.00;;;;;;5020116;28;20112;-48
2023/05/26 10:00:09;;;;;;;13.48;4.20;;;17.80;51.70;;;;;;5029293;28;20382;-45
2023/05/26 10:02:37;;;;;;;20.15;5.90;;;17.80;51.70;;;;;;5021376;28;20402;-52
2023/05/26 10:05:05;;;;;;;14.75;4.68;;;17.80;52.00;;;;;;5024974;28;20042;-46
2023/05/26 10:07:33;;;;;;;20.42;5.13;;;17.80;51.70;;;;;;5017164;28;20073;-45
2023/05/26 10:10:01;;;;;;;11.50;4.50;;;17.90;51.40;;;;;;5026438;28;20069;-46
2023/05/26 10:12:33;;;;;;;14.70;5.03;;;17.90;51.80;;;;;;5017393;28;20572;-46
2023/05/26 10:15:01;;;;;;;16.30;6.03;;;18.00;51.60;;;;;;5026486;28;20049;-45
2023/05/26 10:17:28;;;;;;;13.45;4.68;;;18.10;51.50;;;;;;5014490;28;20564;-46
2023/05/26 10:19:57;;;;;;;15.25;5.03;;;18.10;51.10;;;;;;5027387;28;20045;-48
2023/05/26 10:22:30;;;;;;;13.57;5.07;;;18.10;51.30;;;;;;5028385;28;20119;-47
2023/05/26 10:25:23;;;;;;;18.55;4.93;;;18.20;50.50;;;;;;5029219;28;21797;-51
2023/05/26 10:28:10;;;;;;;20.13;4.80;;;18.20;50.60;;;;;;5017437;28;20211;-49
2023/05/26 10:30:41;;;;;;;14.13;4.72;;;18.30;51.10;;;;;;5030213;28;20061;-48
2023/05/26 10:33:15;;;;;;;15.05;5.72;;;18.40;51.00;;;;;;5029733;28;20041;-47
2023/05/26 10:35:57;;;;;;;16.17;4.72;;;18.40;51.00;;;;;;5020731;28;20099;-49
2023/05/26 10:38:35;;;;;;;17.23;4.55;;;18.50;51.10;;;;;;5021062;28;20069;-47
2023/05/26 10:41:10;;;;;;;11.27;4.57;;;18.50;50.70;;;;;;5029261;28;20049;-51
2023/05/26 10:43:37;;;;;;;13.20;5.40;;;18.60;50.30;;;;;;5035647;28;20518;-50
2023/05/26 10:46:05;;;;;;;14.38;5.90;;;18.70;50.30;;;;;;5021411;28;20072;-47
2023/05/26 10:48:39;;;;;;;13.55;5.30;;;18.70;50.20;;;;;;5028157;28;20037;-47
2023/05/26 10:51:10;;;;;;;14.82;4.55;;;18.80;50.00;;;;;;5026208;28;20060;-48
2023/05/26 10:53:42;;;;;;;17.45;5.05;;;18.90;50.30;;;;;;5030529;28;20607;-50
2023/05/26 10:56:12;;;;;;;12.63;4.25;;;18.90;50.30;;;;;;5021422;28;20045;-48
2023/05/26 10:58:50;;;;;;;12.75;5.00;;;19.00;50.10;;;;;;5028148;28;20129;-51
2023/05/26 11:01:25;;;;;;;16.80;5.03;;;19.10;49.50;;;;;;5028030;28;20110;-49
2023/05/26 11:03:57;;;;;;;8.93;4.20;;;19.20;49.80;;;;;;5021444;28;20044;-49
2023/05/26 11:07:00;;;;;;;20.90;6.50;;;19.20;49.40;;;;;;5026613;28;20053;-52
2023/05/26 11:09:28;;;;;;;14.48;5.63;;;19.30;49.30;;;;;;5032708;28;20079;-52
2023/05/26 11:12:00;;;;;;;12.55;4.45;;;19.40;49.10;;;;;;5023626;28;20125;-51
2023/05/26 11:14:33;;;;;;;14.70;6.13;;;19.50;49.00;;;;;;5017919;28;20042;-49
2023/05/26 11:17:01;;;;;;;11.48;4.65;;;19.50;49.30;;;;;;5020089;28;20521;-48
2023/05/26 11:19:37;;;;;;;13.18;4.38;;;19.60;49.00;;;;;;5027050;28;20525;-48
2023/05/26 11:22:08;;;;;;;11.60;4.20;;;19.70;48.70;;;;;;5022349;28;20458;-48
2023/05/26 11:24:37;;;;;;;11.02;5.00;;;19.70;49.00;;;;;;5026589;28;20674;-51
2023/05/26 11:27:07;;;;;;;14.68;5.10;;;19.80;48.50;;;;;;5027369;28;20064;-50
2023/05/26 11:29:34;;;;;;;10.80;5.60;;;19.90;47.90;;;;;;5032248;28;20510;-46
2023/05/26 11:32:01;;;;;;;12.13;5.03;;;19.90;47.90;;;;;;5024309;28;20111;-52
2023/05/26 11:34:28;;;;;;;17.63;5.00;;;20.00;47.50;;;;;;5024256;28;20038;-50
2023/05/26 11:36:54;;;;;;;12.68;4.78;;;20.00;47.40;;;;;;5028979;28;20045;-50
2023/05/26 11:39:22;;;;;;;12.50;4.93;;;20.10;48.30;;;;;;5031823;28;20053;-47
2023/05/26 11:41:52;;;;;;;14.57;5.20;;;20.10;47.40;;;;;;5017097;28;20072;-50
2023/05/26 11:44:19;;;;;;;16.15;5.57;;;20.20;47.20;;;;;;5030045;28;20099;-51
2023/05/26 11:46:47;;;;;;;15.70;5.93;;;20.20;47.00;;;;;;5023961;28;20852;-47
2023/05/26 11:49:15;;;;;;;17.50;5.28;;;20.30;46.50;;;;;;5031472;28;20448;-51
2023/05/26 11:51:47;;;;;;;10.13;4.40;;;20.30;46.40;;;;;;5025077;28;20037;-51
2023/05/26 11:54:14;;;;;;;18.83;5.70;;;20.40;46.60;;;;;;5022578;28;20514;-51
2023/05/26 11:56:43;;;;;;;20.00;6.05;;;20.50;46.80;;;;;;5021580;28;20417;-48
2023/05/26 11:59:15;;;;;;;11.63;4.30;;;20.50;46.30;;;;;;5011439;28;20068;-49
2023/05/26 12:01:42;;;;;;;16.63;5.38;;;20.60;45.80;;;;;;5022170;28;20072;-51
2023/05/26 12:04:09;;;;;;;17.15;5.55;;;20.70;45.50;;;;;;5021477;28;20029;-50
2023/05/26 12:06:41;;;;;;;10.65;3.92;;;20.70;45.40;;;;;;5003932;28;20045;-50
2023/05/26 12:09:22;;;;;;;12.40;3.92;;;20.80;45.00;;;;;;5013276;28;20168;-51
2023/05/26 12:11:53;;;;;;;9.88;4.32;;;20.80;44.80;;;;;;5025203;28;20042;-49
2023/05/26 12:14:22;;;;;;;11.60;4.88;;;20.90;45.90;;;;;;5020362;28;20094;-49
2023/05/26 12:16:54;;;;;;;13.55;4.75;;;20.90;45.60;;;;;;5017621;28;20096;-51
2023/05/26 12:19:26;;;;;;;9.93;4.00;;;21.00;44.80;;;;;;5029663;28;20037;-48
2023/05/26 12:21:59;;;;;;;10.82;4.80;;;21.10;44.40;;;;;;5025018;28;20134;-49
2023/05/26 12:24:35;;;;;;;13.68;4.55;;;21.20;44.10;;;;;;5024061;28;20037;-48
2023/05/26 12:27:20;;;;;;;13.98;4.25;;;21.30;44.00;;;;;;5025401;28;20045;-51
2023/05/26 12:29:51;;;;;;;13.93;4.00;;;21.40;43.60;;;;;;5021864;28;20050;-52
2023/05/26 12:32:17;;;;;;;8.75;3.50;;;21.40;43.00;;;;;;5019258;28;20157;-49
2023/05/26 12:34:44;;;;;;;9.63;3.60;;;21.50;43.30;;;;;;5026004;28;20037;-53
2023/05/26 12:37:11;;;;;;;13.75;4.45;;;21.60;43.10;;;;;;5020527;28;20037;-49
2023/05/26 12:39:38;;;;;;;10.82;4.38;;;21.70;43.10;;;;;;5024583;28;20056;-49
2023/05/26 12:42:06;;;;;;;10.07;4.05;;;21.80;42.10;;;;;;5021054;28;20660;-50
2023/05/26 12:44:33;;;;;;;7.47;3.20;;;21.90;41.80;;;;;;5021822;28;20494;-53
2023/05/26 12:47:01;;;;;;;7.60;3.13;;;21.90;42.40;;;;;;5023595;28;20056;-48
2023/05/26 12:49:27;;;;;;;13.10;3.70;;;22.00;41.60;;;;;;5025882;28;20132;-50
2023/05/26 12:51:57;;;;;;;9.07;4.40;;;22.10;41.40;;;;;;5025161;28;20688;-51